Time;durP1;ratioP1;P1;durP2;ratioP2;P2;SDS_P1;SDS_P2;PMS_P1;PMS_P2;Temp;Humidity;BMP_temperature;BMP_pressure;BME280_temperature;BME280_humidity;BME280_pressure;Samples;Min_cycle;Max_cycle;Signal;HPM_P1;HPM_P2
2023/01/24 00:00:09;;;;;;;0.30;0.30;;;;;;;18.25;41.16;103281.19;5112053;28;20529;-48
2023/01/24 00:02:34;;;;;;;0.20;0.20;;;;;;;18.25;41.00;103278.44;5111932;28;20194;-47
2023/01/24 00:05:00;;;;;;;0.20;0.20;;;;;;;18.25;41.01;103282.03;5130553;28;20486;-47
2023/01/24 00:07:26;;;;;;;0.30;0.30;;;;;;;18.25;41.07;103275.69;5131145;27;20096;-47
2023/01/24 00:09:51;;;;;;;0.30;0.30;;;;;;;18.24;40.93;103274.00;5130533;28;20043;-49
2023/01/24 00:12:17;;;;;;;0.30;0.30;;;;;;;18.24;41.06;103279.50;5130241;28;20058;-46
2023/01/24 00:14:43;;;;;;;0.30;0.30;;;;;;;18.24;41.12;103282.28;5129908;28;20039;-48
2023/01/24 00:17:09;;;;;;;0.30;0.30;;;;;;;18.25;41.09;103275.69;5130705;28;20053;-46
2023/01/24 00:19:35;;;;;;;0.30;0.30;;;;;;;18.24;41.22;103274.84;5130551;28;20124;-47
2023/01/24 00:22:02;;;;;;;0.25;0.25;;;;;;;18.24;41.02;103274.00;5129974;28;20120;-47
2023/01/24 00:24:28;;;;;;;0.20;0.20;;;;;;;18.24;40.94;103276.75;5108019;28;20282;-49
2023/01/24 00:26:54;;;;;;;0.30;0.30;;;;;;;18.23;41.12;103284.19;5127241;28;20062;-49
2023/01/24 00:29:19;;;;;;;0.20;0.20;;;;;;;18.23;41.17;103284.19;5130226;28;20047;-47
2023/01/24 00:31:45;;;;;;;0.30;0.30;;;;;;;18.24;40.95;103279.50;5129638;28;20054;-47
2023/01/24 00:34:11;;;;;;;0.30;0.30;;;;;;;18.24;41.04;103290.53;5130221;28;20043;-48
2023/01/24 00:36:36;;;;;;;0.30;0.30;;;;;;;18.23;40.98;103288.88;5129935;28;20111;-48
2023/01/24 00:39:03;;;;;;;0.30;0.30;;;;;;;18.24;41.10;103285.03;5130173;28;20059;-47
2023/01/24 00:41:28;;;;;;;0.30;0.30;;;;;;;18.23;41.00;103288.88;5111016;28;20043;-47
2023/01/24 00:43:54;;;;;;;0.30;0.30;;;;;;;18.23;40.96;103280.59;5129628;28;20050;-47
2023/01/24 00:46:19;;;;;;;0.30;0.30;;;;;;;18.23;41.02;103275.06;5130381;28;20092;-48
2023/01/24 00:48:45;;;;;;;0.30;0.30;;;;;;;18.22;41.02;103276.97;5130584;28;20058;-47
2023/01/24 00:51:11;;;;;;;0.30;0.30;;;;;;;18.22;41.16;103273.34;5129183;28;20058;-47
2023/01/24 00:53:37;;;;;;;0.30;0.30;;;;;;;18.23;41.03;103272.31;5129683;28;20388;-47
2023/01/24 00:56:02;;;;;;;0.30;0.30;;;;;;;18.23;41.14;103272.31;5129475;28;20162;-49
2023/01/24 00:58:28;;;;;;;0.30;0.30;;;;;;;18.21;41.05;103267.00;5130211;27;20043;-47
2023/01/24 01:00:55;;;;;;;0.30;0.30;;;;;;;18.23;40.94;103269.56;5128820;28;20059;-47
2023/01/24 01:03:21;;;;;;;0.30;0.30;;;;;;;18.22;41.12;103274.22;5094235;28;20088;-48
2023/01/24 01:05:47;;;;;;;0.30;0.30;;;;;;;18.22;41.02;103274.22;5111224;28;20073;-47
2023/01/24 01:08:13;;;;;;;0.30;0.30;;;;;;;18.22;41.24;103276.97;5108668;28;20100;-47
2023/01/24 01:10:39;;;;;;;0.30;0.30;;;;;;;18.21;41.19;103269.75;5129118;28;20070;-47
2023/01/24 01:13:04;;;;;;;0.30;0.30;;;;;;;18.22;41.11;103268.72;5129226;28;20430;-46
2023/01/24 01:15:31;;;;;;;0.30;0.30;;;;;;;18.22;41.04;103276.09;5091007;28;20050;-47
2023/01/24 01:17:57;;;;;;;0.30;0.30;;;;;;;18.22;41.17;103274.22;5122168;28;20551;-47
2023/01/24 01:20:24;;;;;;;0.30;0.30;;;;;;;18.21;41.24;103272.50;5129067;28;20050;-48
2023/01/24 01:22:49;;;;;;;0.22;0.22;;;;;;;18.21;41.23;103278.03;5128931;28;20048;-50
2023/01/24 01:25:15;;;;;;;0.30;0.30;;;;;;;18.20;41.22;103270.81;5128991;27;20079;-47
2023/01/24 01:27:41;;;;;;;0.30;0.30;;;;;;;18.21;41.15;103274.44;5129615;28;20039;-48
2023/01/24 01:30:07;;;;;;;0.30;0.30;;;;;;;18.21;41.21;103286.31;5129113;28;20039;-49
2023/01/24 01:32:33;;;;;;;0.35;0.35;;;;;;;18.21;41.20;103285.44;5128672;28;20050;-48
2023/01/24 01:34:58;;;;;;;0.30;0.30;;;;;;;18.21;41.08;103280.78;5108393;28;20048;-47
2023/01/24 01:37:24;;;;;;;0.30;0.30;;;;;;;18.21;41.25;103288.22;5129721;28;20414;-48
2023/01/24 01:39:50;;;;;;;0.30;0.30;;;;;;;18.20;41.10;103290.13;5110444;28;20047;-47
2023/01/24 01:42:15;;;;;;;0.30;0.30;;;;;;;18.21;41.25;103289.06;5128896;28;20051;-48
2023/01/24 01:44:43;;;;;;;0.30;0.30;;;;;;;18.21;40.99;103288.22;5128980;28;20489;-48
2023/01/24 01:47:30;;;;;;;0.30;0.30;;;;;;;18.20;41.14;103292.03;5107201;28;20058;-53
2023/01/24 01:50:02;;;;;;;0.40;0.40;;;;;;;18.19;41.27;103288.44;5107212;28;20501;-52
2023/01/24 01:52:32;;;;;;;0.30;0.30;;;;;;;18.19;41.20;103285.69;5108193;28;20071;-50
2023/01/24 01:55:03;;;;;;;0.30;0.30;;;;;;;18.19;41.17;103285.69;5107765;28;20043;-51
2023/01/24 01:57:30;;;;;;;0.30;0.30;;;;;;;18.20;41.12;103283.78;5110951;28;20050;-50
2023/01/24 02:00:03;;;;;;;0.30;0.30;;;;;;;18.19;41.12;103288.44;5110120;28;20043;-50
2023/01/24 02:02:29;;;;;;;0.30;0.30;;;;;;;18.18;41.33;103286.75;5128217;28;20051;-49
2023/01/24 02:04:58;;;;;;;0.40;0.40;;;;;;;18.19;41.23;103282.94;5128428;27;20055;-50
2023/01/24 02:07:36;;;;;;;0.40;0.40;;;;;;;18.19;41.35;103285.69;5110519;28;20070;-53
2023/01/24 02:10:03;;;;;;;0.30;0.30;;;;;;;18.20;41.38;103292.88;5109678;28;20046;-49
2023/01/24 02:12:33;;;;;;;0.30;0.30;;;;;;;18.19;41.26;103290.34;5128081;28;20043;-50
2023/01/24 02:17:50;;;;;;;0.30;0.30;;;;;;;18.18;41.16;103286.75;5099341;28;20204;-52
2023/01/24 02:20:38;;;;;;;0.30;0.30;;;;;;;18.19;41.46;103288.44;5128308;28;20075;-50
2023/01/24 02:23:42;;;;;;;0.30;0.30;;;;;;;18.19;41.15;103287.59;5112798;28;20643;-51
2023/01/24 02:26:09;;;;;;;0.30;0.30;;;;;;;18.18;41.18;103281.25;5115468;28;20043;-50
2023/01/24 02:28:36;;;;;;;0.30;0.30;;;;;;;18.18;41.29;103285.91;5110199;28;20047;-50
2023/01/24 02:31:02;;;;;;;0.30;0.30;;;;;;;18.18;41.38;103281.25;5127477;28;20051;-51
2023/01/24 02:33:28;;;;;;;0.30;0.30;;;;;;;18.18;41.13;103284.00;5109393;28;20134;-50
2023/01/24 02:36:19;;;;;;;0.30;0.30;;;;;;;18.19;41.10;103276.56;5106641;28;20101;-54
2023/01/24 02:38:53;;;;;;;0.30;0.30;;;;;;;18.18;41.27;103275.72;5113696;28;20043;-50
2023/01/24 02:41:22;;;;;;;0.30;0.30;;;;;;;18.19;41.38;103273.81;5108796;28;20096;-49
2023/01/24 02:43:49;;;;;;;0.30;0.30;;;;;;;18.18;41.22;103278.47;5105893;28;20066;-49
2023/01/24 02:46:15;;;;;;;0.30;0.30;;;;;;;18.17;41.32;103270.41;5120123;28;20081;-48
2023/01/24 02:48:41;;;;;;;0.30;0.30;;;;;;;18.18;41.35;103275.72;5128484;28;20259;-50
2023/01/24 02:53:52;;;;;;;0.30;0.30;;;;;;;18.17;41.39;103270.41;5112177;28;20071;-49
2023/01/24 02:59:03;;;;;;;0.30;0.30;;;;;;;18.16;41.27;103269.56;5112798;28;20075;-49
2023/01/24 03:01:30;;;;;;;0.30;0.30;;;;;;;18.17;41.43;103262.97;5108475;28;20051;-50
2023/01/24 03:03:57;;;;;;;0.30;0.30;;;;;;;18.17;41.19;103256.63;5127500;28;20054;-50
2023/01/24 03:06:23;;;;;;;0.30;0.30;;;;;;;18.16;41.26;103264.03;5127881;28;20047;-49
2023/01/24 03:08:48;;;;;;;0.30;0.30;;;;;;;18.17;41.26;103259.38;5105990;28;20052;-49
2023/01/24 03:11:14;;;;;;;0.30;0.30;;;;;;;18.15;41.34;103259.59;5106432;28;20495;-49
2023/01/24 03:35:53;;;;;;;0.30;0.30;;;;;;;18.16;41.29;103266.81;5087173;28;20039;-50
2023/01/24 03:41:06;;;;;;;0.30;0.30;;;;;;;18.15;41.46;103259.59;5115053;28;20104;-51
2023/01/24 03:43:32;;;;;;;0.30;0.30;;;;;;;18.17;41.55;103275.91;5130538;28;20460;-50
2023/01/24 03:45:57;;;;;;;0.30;0.30;;;;;;;18.15;41.35;103264.28;5131210;28;20478;-51
2023/01/24 03:48:26;;;;;;;0.30;0.30;;;;;;;18.16;41.37;103260.44;5130867;28;20043;-50
2023/01/24 03:53:38;;;;;;;0.30;0.30;;;;;;;18.16;41.28;103261.28;5100914;28;20043;-50
2023/01/24 03:56:04;;;;;;;0.30;0.30;;;;;;;18.14;41.45;103257.91;5130553;28;20434;-50
2023/01/24 03:58:30;;;;;;;0.30;0.30;;;;;;;18.15;41.40;103264.28;5130808;28;20055;-49
2023/01/24 04:00:56;;;;;;;0.30;0.30;;;;;;;18.15;41.36;103258.75;5094199;28;20074;-52
2023/01/24 04:03:23;;;;;;;0.30;0.30;;;;;;;18.15;41.35;103258.75;5111919;28;20142;-52
2023/01/24 04:05:49;;;;;;;0.30;0.30;;;;;;;18.14;41.54;103263.44;5095189;28;20411;-49
2023/01/24 04:08:15;;;;;;;0.30;0.30;;;;;;;18.15;41.61;103258.75;5112477;28;20051;-49
2023/01/24 04:10:41;;;;;;;0.30;0.30;;;;;;;18.14;41.27;103263.44;5130061;28;20047;-49
2023/01/24 04:13:09;;;;;;;0.30;0.30;;;;;;;18.15;41.37;103259.59;5130431;28;20057;-51
2023/01/24 04:15:34;;;;;;;0.20;0.20;;;;;;;18.15;41.50;103258.75;5108274;28;20044;-50
2023/01/24 04:18:01;;;;;;;0.30;0.30;;;;;;;18.14;41.34;103260.66;5121326;27;20051;-49
2023/01/24 04:20:29;;;;;;;0.30;0.30;;;;;;;18.15;41.53;103261.50;5074269;28;20047;-49
2023/01/24 04:22:55;;;;;;;0.20;0.20;;;;;;;18.15;41.41;103258.75;5118445;28;20070;-49
2023/01/24 04:25:21;;;;;;;0.30;0.30;;;;;;;18.14;41.35;103257.91;5111427;28;20074;-49
2023/01/24 04:27:47;;;;;;;0.30;0.30;;;;;;;18.15;41.41;103264.28;5130323;28;20043;-49
2023/01/24 04:30:15;;;;;;;0.30;0.30;;;;;;;18.14;41.34;103255.16;5111441;28;20112;-49
2023/01/24 04:32:41;;;;;;;0.20;0.20;;;;;;;18.14;41.42;103257.06;5110809;28;20062;-51
2023/01/24 04:35:07;;;;;;;0.30;0.30;;;;;;;18.15;41.34;103253.25;5109357;28;20306;-51
2023/01/24 04:37:33;;;;;;;0.30;0.30;;;;;;;18.16;41.36;103257.69;5111566;28;20051;-51
2023/01/24 04:40:01;;;;;;;0.30;0.30;;;;;;;18.13;41.36;103256.19;5130134;28;20043;-49
2023/01/24 04:42:26;;;;;;;0.30;0.30;;;;;;;18.13;41.45;103256.19;5129687;28;20039;-50
2023/01/24 04:44:52;;;;;;;0.30;0.30;;;;;;;18.14;41.60;103257.06;5129977;28;20051;-49
2023/01/24 04:47:18;;;;;;;0.30;0.30;;;;;;;18.14;41.43;103255.16;5130446;28;20199;-48
2023/01/24 04:49:43;;;;;;;0.30;0.30;;;;;;;18.13;41.56;103258.13;5129569;28;20053;-49
2023/01/24 04:52:11;;;;;;;0.30;0.30;;;;;;;18.13;41.39;103253.44;5129718;28;20313;-49
2023/01/24 04:54:38;;;;;;;0.30;0.30;;;;;;;18.13;41.40;103258.13;5094112;28;20131;-49
2023/01/24 04:57:03;;;;;;;0.30;0.30;;;;;;;18.13;41.37;103266.38;5129222;28;20450;-51
2023/01/24 04:59:29;;;;;;;0.30;0.30;;;;;;;18.12;41.35;103260.03;5129825;28;20045;-49
2023/01/24 05:01:55;;;;;;;0.40;0.40;;;;;;;18.13;41.39;103261.72;5128821;28;20430;-51
2023/01/24 05:04:20;;;;;;;0.30;0.30;;;;;;;18.13;41.45;103258.97;5124509;28;20099;-50
2023/01/24 05:06:46;;;;;;;0.20;0.20;;;;;;;18.13;41.60;103264.47;5120750;28;20061;-50
2023/01/24 05:09:12;;;;;;;0.30;0.30;;;;;;;18.14;41.48;103257.06;5129579;28;20404;-51
2023/01/24 05:11:37;;;;;;;0.30;0.30;;;;;;;18.12;41.37;103256.44;5138409;27;20050;-49
2023/01/24 05:14:03;;;;;;;0.30;0.30;;;;;;;18.13;41.52;103255.34;5148496;27;20362;-49
2023/01/24 05:16:29;;;;;;;0.30;0.30;;;;;;;18.13;41.49;103271.91;5129476;28;20054;-52
2023/01/24 05:18:54;;;;;;;0.30;0.30;;;;;;;18.12;41.53;103262.78;5130003;28;20460;-49
2023/01/24 05:21:20;;;;;;;0.30;0.30;;;;;;;18.13;41.59;103261.72;5128686;28;20050;-52
2023/01/24 05:23:50;;;;;;;0.30;0.30;;;;;;;18.12;41.45;103264.69;5129113;28;20428;-51
2023/01/24 05:26:16;;;;;;;0.30;0.30;;;;;;;18.12;41.51;103260.03;5111008;28;20046;-50
2023/01/24 05:28:42;;;;;;;0.30;0.30;;;;;;;18.12;41.42;103271.06;5129287;28;20490;-51
2023/01/24 05:31:08;;;;;;;0.30;0.30;;;;;;;18.11;41.48;103263.00;5128139;28;20463;-49
2023/01/24 05:33:34;;;;;;;0.30;0.30;;;;;;;18.13;41.43;103271.91;5129073;28;20044;-50
2023/01/24 05:36:06;;;;;;;0.30;0.30;;;;;;;18.12;41.69;103276.56;5129132;28;20196;-49
2023/01/24 05:38:32;;;;;;;0.30;0.30;;;;;;;18.12;41.49;103270.22;5107295;28;20043;-51
2023/01/24 05:41:16;;;;;;;0.20;0.20;;;;;;;18.11;41.33;103279.56;5107763;28;20044;-50
2023/01/24 05:43:42;;;;;;;0.30;0.30;;;;;;;18.12;41.52;103276.56;5090379;28;20051;-50
2023/01/24 05:46:13;;;;;;;0.25;0.25;;;;;;;18.12;41.46;103275.72;5125503;28;20492;-50
2023/01/24 05:48:39;;;;;;;0.28;0.28;;;;;;;18.12;41.49;103282.09;5129028;28;20055;-53
2023/01/24 05:51:07;;;;;;;0.30;0.30;;;;;;;18.12;41.45;103284.84;5128416;28;20077;-49
2023/01/24 05:53:35;;;;;;;0.20;0.20;;;;;;;18.12;41.46;103286.75;5110138;28;20050;-50
2023/01/24 05:56:03;;;;;;;0.20;0.20;;;;;;;18.11;41.47;103288.69;5093615;28;20085;-51
2023/01/24 05:58:32;;;;;;;0.30;0.30;;;;;;;18.12;41.50;103292.28;5128587;28;20127;-49
2023/01/24 06:00:58;;;;;;;0.30;0.30;;;;;;;18.10;41.39;103289.75;5106975;28;20744;-49
2023/01/24 06:03:24;;;;;;;0.30;0.30;;;;;;;18.11;41.38;103296.94;5124347;28;20051;-55
2023/01/24 06:05:53;;;;;;;0.30;0.30;;;;;;;18.12;41.21;103298.63;5122973;28;20074;-50
2023/01/24 06:08:19;;;;;;;0.30;0.30;;;;;;;18.11;41.46;103299.72;5126962;28;20051;-49
2023/01/24 06:10:45;;;;;;;0.30;0.30;;;;;;;18.11;41.58;103305.22;5111188;27;20082;-49
2023/01/24 06:13:11;;;;;;;0.30;0.30;;;;;;;18.11;41.68;103304.38;5108664;28;20039;-49
2023/01/24 06:15:37;;;;;;;0.30;0.30;;;;;;;18.11;41.57;103310.72;5127336;28;20347;-50
2023/01/24 06:18:03;;;;;;;0.20;0.20;;;;;;;18.11;41.47;103310.72;5105836;28;20062;-49
2023/01/24 06:20:29;;;;;;;0.30;0.30;;;;;;;18.11;41.67;103318.16;5106086;28;20044;-49
2023/01/24 06:23:02;;;;;;;0.20;0.20;;;;;;;18.11;41.14;103312.66;5107609;28;20055;-53
2023/01/24 06:25:28;;;;;;;0.30;0.30;;;;;;;18.11;41.37;103321.78;5105734;28;20075;-52
2023/01/24 06:27:54;;;;;;;0.30;0.30;;;;;;;18.10;41.53;103314.56;5119584;28;20566;-49
2023/01/24 06:30:20;;;;;;;0.30;0.30;;;;;;;18.11;41.47;103318.16;5127765;28;20430;-49
2023/01/24 06:33:17;;;;;;;0.30;0.30;;;;;;;18.11;41.57;103326.44;5101797;28;20070;-50
2023/01/24 06:36:07;;;;;;;0.30;0.30;;;;;;;18.11;41.55;103318.16;5112308;27;20197;-50
2023/01/24 06:38:33;;;;;;;0.30;0.30;;;;;;;18.10;41.48;103322.84;5106957;27;20043;-51
2023/01/24 06:41:01;;;;;;;0.30;0.30;;;;;;;18.12;41.52;103322.63;5096858;28;20053;-49
2023/01/24 06:43:27;;;;;;;0.30;0.30;;;;;;;18.11;41.49;103329.19;5100373;28;20243;-50
2023/01/24 06:45:53;;;;;;;0.30;0.30;;;;;;;18.10;41.62;103324.75;5116188;28;20368;-51
2023/01/24 06:48:19;;;;;;;0.30;0.30;;;;;;;18.09;41.46;103329.44;5098041;28;20051;-50
2023/01/24 06:50:45;;;;;;;0.32;0.32;;;;;;;18.11;41.44;103332.81;5112588;28;20043;-49
2023/01/24 06:53:11;;;;;;;0.30;0.30;;;;;;;18.10;41.54;103336.63;5117028;27;20524;-50
2023/01/24 06:55:37;;;;;;;0.30;0.30;;;;;;;18.10;41.79;103330.28;5118958;27;20062;-49
2023/01/24 06:58:03;;;;;;;0.30;0.30;;;;;;;18.11;41.40;103326.44;5118174;27;20418;-51
2023/01/24 07:00:30;;;;;;;0.30;0.30;;;;;;;18.10;41.61;103333.88;5090722;28;20393;-52
2023/01/24 07:03:00;;;;;;;0.30;0.30;;;;;;;18.10;41.53;103339.38;5078227;27;20122;-49
2023/01/24 07:05:26;;;;;;;0.30;0.30;;;;;;;18.10;41.58;103339.38;5090585;28;20141;-49
2023/01/24 07:07:52;;;;;;;0.30;0.30;;;;;;;18.10;41.53;103341.28;5112710;27;20063;-49
2023/01/24 07:10:18;;;;;;;0.30;0.30;;;;;;;18.10;41.39;103349.56;5094191;28;20039;-51
2023/01/24 07:12:43;;;;;;;0.30;0.30;;;;;;;18.10;41.41;103349.56;5113091;27;20506;-49
2023/01/24 07:15:09;;;;;;;0.30;0.30;;;;;;;18.09;41.42;103345.09;5117908;28;20088;-49
2023/01/24 07:17:35;;;;;;;0.30;0.30;;;;;;;18.11;41.40;103356.78;5123059;28;20111;-50
2023/01/24 07:20:01;;;;;;;0.30;0.30;;;;;;;18.10;41.39;103350.41;5080939;28;20503;-51
2023/01/24 07:22:27;;;;;;;0.30;0.30;;;;;;;18.11;41.31;103356.78;5100367;28;20054;-52
2023/01/24 07:24:54;;;;;;;0.30;0.30;;;;;;;18.09;39.89;103362.50;5086178;27;20075;-59
2023/01/24 07:27:19;;;;;;;0.30;0.30;;;;;;;18.11;41.00;103365.88;5092576;27;20047;-53
2023/01/24 07:29:45;;;;;;;0.30;0.30;;;;;;;18.16;41.44;103370.75;5102845;27;20092;-52
2023/01/24 07:32:11;;;;;;;0.30;0.30;;;;;;;18.19;41.46;103370.34;5101998;27;20562;-54
2023/01/24 07:34:37;;;;;;;0.30;0.30;;;;;;;18.16;41.51;103379.88;5117721;27;20043;-51
2023/01/24 07:37:05;;;;;;;0.30;0.30;;;;;;;18.14;41.73;103382.03;5101169;27;20048;-55
2023/01/24 07:39:31;;;;;;;0.20;0.20;;;;;;;18.22;41.70;103376.28;5088182;28;20046;-55
2023/01/24 07:41:57;;;;;;;0.40;0.40;;;;;;;18.21;41.55;103370.97;5108162;27;20050;-50
2023/01/24 07:44:23;;;;;;;0.30;0.30;;;;;;;18.22;41.74;103376.28;5106201;27;20047;-60
2023/01/24 07:46:48;;;;;;;0.30;0.30;;;;;;;18.23;41.82;103385.41;5120583;27;20043;-58
2023/01/24 07:49:14;;;;;;;0.30;0.30;;;;;;;18.32;42.25;103383.25;5109802;27;20447;-56
2023/01/24 07:51:40;;;;;;;0.20;0.20;;;;;;;18.30;42.26;103384.28;5115126;27;20047;-56
2023/01/24 07:54:06;;;;;;;0.30;0.30;;;;;;;18.26;40.66;103384.94;5099301;28;20086;-58
2023/01/24 07:56:33;;;;;;;0.30;0.30;;;;;;;18.27;41.77;103389.44;5102111;28;20577;-59
2023/01/24 07:58:59;;;;;;;0.30;0.30;;;;;;;18.30;41.94;103383.44;5102782;27;20495;-56
2023/01/24 08:01:25;;;;;;;0.30;0.30;;;;;;;18.32;42.13;103388.78;5102118;27;20047;-56
2023/01/24 08:03:54;;;;;;;0.30;0.30;;;;;;;18.27;42.50;103387.50;5105679;27;20138;-55
2023/01/24 08:06:19;;;;;;;0.20;0.20;;;;;;;18.24;42.29;103385.16;5106448;27;20478;-56
2023/01/24 08:08:45;;;;;;;0.30;0.30;;;;;;;18.25;42.39;103391.53;5101512;27;20054;-56
2023/01/24 08:11:13;;;;;;;0.30;0.30;;;;;;;18.24;42.16;103390.69;5109614;27;20055;-56
2023/01/24 08:13:39;;;;;;;0.30;0.30;;;;;;;18.26;42.33;103384.94;5116555;27;20273;-57
2023/01/24 08:16:05;;;;;;;0.30;0.30;;;;;;;18.27;42.33;103405.97;5089227;27;20159;-57
2023/01/24 08:18:31;;;;;;;0.30;0.30;;;;;;;18.32;41.82;103399.81;5110186;27;20077;-62
2023/01/24 08:20:57;;;;;;;0.30;0.30;;;;;;;18.32;41.96;103397.06;5115650;27;20173;-57
2023/01/24 08:23:23;;;;;;;0.30;0.30;;;;;;;18.35;41.90;103402.13;5120073;27;20043;-56
2023/01/24 08:25:48;;;;;;;0.30;0.30;;;;;;;18.35;42.19;103393.84;5118339;27;20047;-57
2023/01/24 08:28:14;;;;;;;0.30;0.30;;;;;;;18.39;42.06;103400.63;5096597;28;20051;-61
2023/01/24 08:30:40;;;;;;;0.30;0.30;;;;;;;18.45;42.36;103403.38;5091804;28;20074;-55
2023/01/24 08:33:06;;;;;;;0.30;0.30;;;;;;;18.43;41.93;103399.97;5113217;27;20051;-56
2023/01/24 08:35:32;;;;;;;0.30;0.30;;;;;;;18.41;42.19;103398.50;5118096;27;20035;-56
2023/01/24 08:37:58;;;;;;;0.20;0.20;;;;;;;18.40;41.96;103407.88;5099708;27;20047;-55
2023/01/24 08:40:24;;;;;;;0.30;0.30;;;;;;;18.36;42.14;103403.84;5097557;27;20042;-56
2023/01/24 08:42:51;;;;;;;0.30;0.30;;;;;;;18.37;42.30;103405.53;5117879;27;20059;-56
2023/01/24 08:45:17;;;;;;;0.30;0.30;;;;;;;18.36;42.26;103420.38;5123969;27;20101;-55
2023/01/24 08:47:42;;;;;;;0.30;0.30;;;;;;;18.43;42.11;103422.03;5111753;27;20035;-58
2023/01/24 08:50:09;;;;;;;0.30;0.30;;;;;;;18.44;42.42;103420.16;5117297;27;21697;-56
2023/01/24 08:52:34;;;;;;;0.30;0.30;;;;;;;18.43;42.38;103423.97;5116482;27;20062;-56
2023/01/24 08:55:00;;;;;;;0.30;0.30;;;;;;;18.46;43.11;103429.06;5115958;27;20047;-55
2023/01/24 08:57:26;;;;;;;0.20;0.20;;;;;;;18.48;42.44;103429.69;5120489;28;20667;-56
2023/01/24 08:59:51;;;;;;;0.20;0.20;;;;;;;18.45;42.60;103433.72;5124099;27;20062;-56
2023/01/24 09:02:17;;;;;;;0.20;0.20;;;;;;;18.43;42.65;103418.44;5100680;27;20047;-56
2023/01/24 09:04:43;;;;;;;0.30;0.30;;;;;;;18.41;42.62;103429.72;5111896;27;20039;-55
2023/01/24 09:07:11;;;;;;;0.20;0.20;;;;;;;18.40;42.76;103428.03;5090873;28;20163;-55
2023/01/24 09:09:36;;;;;;;0.30;0.30;;;;;;;18.41;42.73;103437.13;5074439;27;20088;-55
2023/01/24 09:12:02;;;;;;;0.30;0.30;;;;;;;17.85;36.59;103430.16;5106796;27;20492;-56
2023/01/24 09:14:28;;;;;;;0.22;0.22;;;;;;;18.09;39.69;103427.81;5107643;27;20848;-56
2023/01/24 09:16:54;;;;;;;0.35;0.35;;;;;;;18.23;41.06;103429.53;5113826;27;20047;-56
2023/01/24 09:19:20;;;;;;;0.30;0.30;;;;;;;18.27;41.27;103431.66;5100462;27;20041;-55
2023/01/24 09:21:50;;;;;;;0.30;0.30;;;;;;;18.27;37.99;103433.56;5104937;27;20092;-57
2023/01/24 09:24:16;;;;;;;0.30;0.30;;;;;;;18.29;38.58;103431.41;5108683;27;20453;-58
2023/01/24 09:26:43;;;;;;;0.30;0.30;;;;;;;18.37;40.66;103435.88;5111753;27;20506;-58
2023/01/24 09:29:09;;;;;;;0.30;0.30;;;;;;;18.37;40.82;103431.19;5106870;27;20049;-58
2023/01/24 09:31:37;;;;;;;0.20;0.20;;;;;;;18.42;39.68;103433.31;5093881;27;20665;-58
2023/01/24 09:34:03;;;;;;;0.30;0.30;;;;;;;18.41;39.89;103437.97;5113035;27;20092;-57
2023/01/24 09:36:29;;;;;;;0.30;0.30;;;;;;;18.43;40.79;103446.88;5091611;27;20054;-58
2023/01/24 09:38:56;;;;;;;0.30;0.30;;;;;;;18.40;40.87;103441.81;5080015;27;20137;-57
2023/01/24 09:41:41;;;;;;;0.30;0.30;;;;;;;18.41;40.94;103440.75;5097085;27;20464;-58
2023/01/24 09:44:16;;;;;;;0.30;0.30;;;;;;;18.40;41.00;103444.56;5101284;27;20039;-57
2023/01/24 09:46:46;;;;;;;0.30;0.30;;;;;;;18.40;41.18;103450.09;5102909;27;20071;-57
2023/01/24 09:49:25;;;;;;;0.30;0.30;;;;;;;18.41;41.26;103449.03;5108481;27;20051;-58
2023/01/24 09:51:53;;;;;;;0.20;0.20;;;;;;;18.41;41.31;103451.78;5115110;27;20479;-58
2023/01/24 09:54:43;;;;;;;0.20;0.20;;;;;;;18.40;40.49;103441.81;5090916;27;20058;-59
2023/01/24 09:57:16;;;;;;;0.22;0.22;;;;;;;18.40;39.66;103444.56;5087694;28;20263;-58
2023/01/24 09:59:45;;;;;;;0.20;0.20;;;;;;;18.46;39.88;103446.47;5094656;27;20039;-55
2023/01/24 10:02:16;;;;;;;0.30;0.30;;;;;;;18.48;40.99;103446.22;5118399;27;20071;-56
2023/01/24 10:04:43;;;;;;;0.30;0.30;;;;;;;18.47;41.13;103450.91;5104301;28;20405;-55
2023/01/24 10:07:35;;;;;;;0.30;0.30;;;;;;;18.46;41.16;103453.91;5115379;27;20054;-57
2023/01/24 10:10:30;;;;;;;0.20;0.20;;;;;;;18.51;40.55;103451.31;5101057;27;20054;-58
2023/01/24 10:13:20;;;;;;;0.30;0.30;;;;;;;18.51;41.29;103438.38;5107101;28;20047;-58
2023/01/24 10:19:02;;;;;;;0.30;0.30;;;;;;;18.61;41.25;103453.63;5158734;27;19933;-56
2023/01/24 10:22:07;;;;;;;0.30;0.30;;;;;;;18.57;40.65;103447.72;5116543;27;20047;-55
2023/01/24 10:24:36;;;;;;;0.28;0.28;;;;;;;18.58;41.43;103443.06;5105194;27;20066;-55
2023/01/24 10:27:22;;;;;;;0.30;0.30;;;;;;;18.52;41.29;103440.09;5150852;27;20050;-54
2023/01/24 10:29:57;;;;;;;0.20;0.20;;;;;;;18.51;41.56;103445.81;5150854;27;20121;-54
2023/01/24 10:32:30;;;;;;;0.30;0.30;;;;;;;18.51;41.78;103443.06;5152426;27;20074;-55
2023/01/24 10:34:59;;;;;;;0.30;0.30;;;;;;;18.49;41.65;103454.31;5133750;27;20158;-55
2023/01/24 10:37:29;;;;;;;0.30;0.30;;;;;;;18.50;41.96;103444.13;5128280;27;20142;-57
2023/01/24 10:39:54;;;;;;;0.30;0.30;;;;;;;18.50;41.78;103455.16;5123057;27;20138;-55
2023/01/24 10:42:26;;;;;;;0.30;0.30;;;;;;;18.43;38.55;103449.63;5140514;27;20048;-57
2023/01/24 10:44:53;;;;;;;0.20;0.20;;;;;;;18.51;40.99;103454.09;5114942;27;20050;-52
2023/01/24 10:47:40;;;;;;;0.30;0.30;;;;;;;18.52;41.11;103458.53;5132938;27;20154;-51
2023/01/24 10:50:13;;;;;;;0.30;0.30;;;;;;;18.51;41.21;103449.41;5138011;27;20069;-53
2023/01/24 10:52:38;;;;;;;0.30;0.30;;;;;;;18.51;41.09;103459.59;5125901;27;20673;-51
2023/01/24 10:55:26;;;;;;;0.30;0.30;;;;;;;18.51;41.44;103451.31;5154999;27;20042;-53
2023/01/24 10:57:52;;;;;;;0.30;0.30;;;;;;;18.50;41.41;103456.00;5139656;27;20103;-52
2023/01/24 11:02:59;;;;;;;0.28;0.28;;;;;;;18.52;41.34;103451.13;5174909;27;20131;-52
2023/01/24 11:05:35;;;;;;;0.30;0.30;;;;;;;18.52;41.42;103450.25;5130951;27;20123;-52
2023/01/24 11:08:04;;;;;;;0.30;0.30;;;;;;;18.52;41.42;103448.38;5133669;27;20516;-53
2023/01/24 11:10:35;;;;;;;0.30;0.30;;;;;;;18.54;41.48;103448.16;5132686;27;20047;-53
2023/01/24 11:13:02;;;;;;;0.30;0.30;;;;;;;18.53;41.53;103435.41;5153736;27;20747;-52
2023/01/24 11:15:31;;;;;;;0.30;0.30;;;;;;;18.54;41.27;103437.97;5160805;27;20073;-52
2023/01/24 11:18:06;;;;;;;0.20;0.20;;;;;;;18.55;41.48;103438.81;5137659;27;20057;-53
2023/01/24 11:20:34;;;;;;;0.30;0.30;;;;;;;18.53;41.52;103432.66;5134447;27;20051;-53
2023/01/24 11:23:21;;;;;;;0.20;0.20;;;;;;;18.53;41.54;103428.00;5137404;27;20042;-53
2023/01/24 11:25:55;;;;;;;0.30;0.30;;;;;;;18.55;41.44;103428.59;5126897;27;20085;-51
2023/01/24 11:28:24;;;;;;;0.30;0.30;;;;;;;18.55;41.63;103422.25;5139688;27;20473;-52
2023/01/24 11:30:50;;;;;;;0.40;0.40;;;;;;;18.55;41.52;103431.38;5119397;27;20054;-51
2023/01/24 11:35:56;;;;;;;0.30;0.30;;;;;;;18.55;41.51;103420.31;5171788;27;20124;-52
2023/01/24 11:38:28;;;;;;;0.20;0.20;;;;;;;18.56;40.63;103421.16;5133923;27;20466;-52
2023/01/24 11:41:12;;;;;;;0.30;0.30;;;;;;;18.56;39.60;103419.25;5121567;27;20560;-52
2023/01/24 11:44:02;;;;;;;0.30;0.30;;;;;;;18.56;40.54;103424.78;5137451;27;20046;-52
2023/01/24 11:46:36;;;;;;;0.30;0.30;;;;;;;18.55;41.42;103412.03;5120375;27;20321;-52
2023/01/24 11:49:14;;;;;;;0.50;0.50;;;;;;;18.30;36.91;103405.53;5136184;27;20266;-53
2023/01/24 11:51:57;;;;;;;0.25;0.25;;;;;;;18.41;39.47;103412.31;5140094;27;20139;-54
2023/01/24 11:54:36;;;;;;;0.30;0.30;;;;;;;18.48;38.87;103411.22;5117736;27;20081;-54
2023/01/24 11:57:12;;;;;;;0.30;0.30;;;;;;;18.50;40.01;103402.72;5115599;27;20638;-54
2023/01/24 12:00:01;;;;;;;0.30;0.30;;;;;;;18.51;39.99;103410.78;5142785;27;20047;-53
2023/01/24 12:02:53;;;;;;;0.30;0.30;;;;;;;18.54;40.47;103404.00;5150513;27;20047;-56
2023/01/24 12:05:28;;;;;;;0.30;0.30;;;;;;;18.56;40.47;103401.84;5132827;27;20133;-53
2023/01/24 12:08:29;;;;;;;0.30;0.30;;;;;;;18.55;40.55;103392.72;5154338;27;20073;-54
2023/01/24 12:11:19;;;;;;;0.30;0.30;;;;;;;18.56;40.45;103388.06;5134156;27;20795;-53
2023/01/24 12:17:05;;;;;;;0.30;0.30;;;;;;;18.56;40.78;103386.13;5158971;27;20473;-52
2023/01/24 12:22:55;;;;;;;0.30;0.30;;;;;;;18.55;40.79;103384.44;5165348;27;20132;-54